Time;durP1;ratioP1;P1;durP2;ratioP2;P2;SDS_P1;SDS_P2;PMS_P1;PMS_P2;Temp;Humidity;BMP_temperature;BMP_pressure;BME280_temperature;BME280_humidity;BME280_pressure;Samples;Min_cycle;Max_cycle;Signal;HPM_P1;HPM_P2
2022/04/29 00:00:42;;;;;;;45.28;23.30;;;11.20;99.90;;;;;;4991562;28;20046;-89
2022/04/29 00:03:10;;;;;;;40.75;23.25;;;11.20;99.90;;;;;;4992747;28;20503;-90
2022/04/29 00:05:40;;;;;;;45.37;22.67;;;10.90;99.90;;;;;;4992920;28;20058;-89
2022/04/29 00:08:08;;;;;;;40.95;22.65;;;11.00;99.90;;;;;;4991163;28;20037;-90
2022/04/29 00:10:35;;;;;;;43.70;23.00;;;11.00;99.90;;;;;;5008284;28;20023;-89
2022/04/29 00:13:02;;;;;;;42.13;21.63;;;11.00;99.90;;;;;;4994667;28;20038;-88
2022/04/29 00:15:29;;;;;;;45.03;23.77;;;10.90;99.90;;;;;;4992984;28;20018;-89
2022/04/29 00:17:55;;;;;;;47.83;23.13;;;10.60;99.90;;;;;;4991408;28;20033;-90
2022/04/29 00:20:22;;;;;;;39.95;22.67;;;10.70;99.90;;;;;;4992167;28;20113;-90
2022/04/29 00:22:47;;;;;;;51.00;23.90;;;10.60;99.90;;;;;;4991530;28;20088;-89
2022/04/29 00:25:13;;;;;;;46.00;23.02;;;10.50;99.90;;;;;;4991406;28;20030;-90
2022/04/29 00:27:40;;;;;;;43.55;22.25;;;10.60;99.90;;;;;;4991267;28;20402;-90
2022/04/29 00:30:08;;;;;;;50.80;22.67;;;10.60;99.90;;;;;;4991290;28;20383;-90
2022/04/29 00:32:34;;;;;;;46.40;22.95;;;10.60;99.90;;;;;;4992767;28;20081;-91
2022/04/29 00:35:00;;;;;;;45.63;22.67;;;10.40;99.90;;;;;;4992178;28;20508;-89
2022/04/29 00:37:26;;;;;;;44.88;22.92;;;10.40;99.90;;;;;;4991549;28;20030;-90
2022/04/29 00:39:52;;;;;;;42.85;22.92;;;10.30;99.90;;;;;;4991905;28;20026;-90
2022/04/29 00:42:21;;;;;;;44.63;23.95;;;10.30;99.90;;;;;;4990634;28;20050;-90
2022/04/29 00:44:47;;;;;;;51.17;23.45;;;10.30;99.90;;;;;;4992127;28;20026;-90
2022/04/29 00:47:19;;;;;;;53.00;23.55;;;10.30;99.90;;;;;;4990396;28;20289;-90
2022/04/29 00:49:45;;;;;;;48.88;23.80;;;10.40;99.90;;;;;;4992205;28;20034;-89
2022/04/29 00:52:19;;;;;;;46.45;23.30;;;10.30;99.90;;;;;;4990496;28;20026;-88
2022/04/29 00:54:52;;;;;;;47.65;23.83;;;10.30;99.90;;;;;;4990599;28;20034;-90
2022/04/29 00:57:41;;;;;;;50.95;23.27;;;10.30;99.90;;;;;;4990511;28;20027;-88
2022/04/29 01:00:10;;;;;;;45.28;23.10;;;10.30;99.90;;;;;;4984995;28;20092;-91
2022/04/29 01:02:41;;;;;;;44.35;23.30;;;10.40;99.90;;;;;;4990779;28;20037;-90
2022/04/29 01:05:12;;;;;;;46.15;21.55;;;10.40;99.90;;;;;;4991720;28;20029;-89
2022/04/29 01:07:39;;;;;;;51.63;23.63;;;10.50;99.90;;;;;;4991952;28;20121;-90
2022/04/29 01:10:06;;;;;;;45.13;23.48;;;10.40;99.90;;;;;;4991609;28;20018;-91
2022/04/29 01:12:35;;;;;;;44.85;22.73;;;10.40;99.90;;;;;;4991652;28;20117;-89
2022/04/29 01:15:05;;;;;;;;;;;10.50;99.90;;;;;;4990849;28;20461;-89
2022/04/29 01:17:36;;;;;;;47.53;21.85;;;10.50;99.90;;;;;;5018011;28;20003;-90
2022/04/29 01:20:04;;;;;;;53.65;24.23;;;10.50;99.90;;;;;;5010137;28;20030;-91
2022/04/29 01:22:30;;;;;;;49.70;24.17;;;;;;;;;;5008634;28;20035;-89
2022/04/29 01:24:57;;;;;;;47.03;22.50;;;10.40;99.90;;;;;;4990316;28;20564;-89
2022/04/29 01:27:22;;;;;;;45.83;23.20;;;10.50;99.90;;;;;;4991048;28;20058;-90
2022/04/29 01:29:55;;;;;;;52.45;24.33;;;10.50;99.90;;;;;;4991209;28;20069;-91
2022/04/29 01:32:22;;;;;;;44.42;22.75;;;10.50;99.90;;;;;;4992207;28;20030;-89
2022/04/29 01:34:48;;;;;;;52.17;22.90;;;10.70;99.90;;;;;;4991225;28;20022;-90
2022/04/29 01:37:13;;;;;;;48.55;23.05;;;10.60;99.90;;;;;;5006268;28;20227;-89
2022/04/29 01:39:39;;;;;;;44.17;22.17;;;10.60;99.90;;;;;;4990995;28;20022;-89
2022/04/29 01:42:05;;;;;;;45.40;22.80;;;10.70;99.90;;;;;;4990950;28;20386;-88
2022/04/29 01:44:31;;;;;;;44.67;22.20;;;10.60;99.90;;;;;;4990590;28;20026;-89
2022/04/29 01:46:57;;;;;;;44.53;23.63;;;10.80;99.90;;;;;;4989170;28;20046;-87
2022/04/29 01:49:22;;;;;;;48.40;23.60;;;10.50;99.90;;;;;;4990422;28;20062;-89
2022/04/29 01:51:48;;;;;;;57.42;23.08;;;10.60;99.90;;;;;;4989967;28;20120;-88
2022/04/29 01:54:14;;;;;;;38.47;20.65;;;10.60;99.90;;;;;;4989207;28;20034;-90
2022/04/29 01:56:40;;;;;;;43.25;21.15;;;10.70;99.90;;;;;;4990719;28;20312;-89
2022/04/29 01:59:10;;;;;;;45.83;22.73;;;10.70;99.90;;;;;;4989315;28;20479;-89
2022/04/29 02:01:37;;;;;;;50.88;23.13;;;10.50;99.90;;;;;;4990648;28;20030;-88
2022/04/29 02:04:03;;;;;;;43.95;22.60;;;10.50;99.90;;;;;;4989551;28;20391;-90
2022/04/29 02:06:29;;;;;;;46.85;23.33;;;10.50;99.90;;;;;;5005719;28;20044;-89
2022/04/29 02:08:55;;;;;;;39.50;22.25;;;10.50;99.90;;;;;;4989263;28;20470;-89
2022/04/29 02:11:21;;;;;;;56.75;23.52;;;10.40;99.90;;;;;;4990030;28;20033;-88
2022/04/29 02:13:48;;;;;;;49.30;21.92;;;10.30;99.90;;;;;;4989262;28;20018;-90
2022/04/29 02:16:14;;;;;;;42.08;22.70;;;10.40;99.90;;;;;;5005890;28;20302;-89
2022/04/29 02:18:40;;;;;;;50.83;23.15;;;10.40;99.90;;;;;;4990879;28;20027;-89
2022/04/29 02:21:07;;;;;;;55.75;24.35;;;10.30;99.90;;;;;;4990404;28;20026;-89
2022/04/29 02:23:32;;;;;;;43.08;22.55;;;10.20;99.90;;;;;;4989400;28;20022;-89
2022/04/29 02:25:58;;;;;;;46.97;23.50;;;10.20;99.90;;;;;;4988933;28;20030;-89
2022/04/29 02:28:24;;;;;;;48.40;23.45;;;10.10;99.90;;;;;;4990680;28;20072;-89
2022/04/29 02:30:50;;;;;;;46.92;22.02;;;10.00;99.90;;;;;;4991353;28;20022;-89
2022/04/29 02:33:16;;;;;;;52.85;24.33;;;10.00;99.90;;;;;;4989999;28;20032;-91
2022/04/29 02:35:42;;;;;;;51.08;22.15;;;9.90;99.90;;;;;;4997996;28;20025;-91
2022/04/29 02:38:08;;;;;;;51.83;23.25;;;9.90;99.90;;;;;;5014248;28;20034;-91
2022/04/29 02:40:34;;;;;;;55.45;23.33;;;;;;;;;;5012546;28;20041;-89
2022/04/29 02:42:59;;;;;;;47.63;24.00;;;9.80;99.90;;;;;;5005888;28;20089;-91
2022/04/29 02:45:25;;;;;;;49.72;23.48;;;;;;;;;;5008886;28;20014;-90
2022/04/29 02:47:51;;;;;;;41.33;22.13;;;9.70;99.90;;;;;;4989946;28;20042;-89
2022/04/29 02:50:19;;;;;;;48.95;23.90;;;9.80;99.90;;;;;;4988691;28;20073;-90
2022/04/29 02:52:45;;;;;;;48.53;22.80;;;9.80;99.90;;;;;;4989596;28;20612;-90
2022/04/29 02:55:11;;;;;;;46.80;23.85;;;9.80;99.90;;;;;;4988591;28;20026;-90
2022/04/29 02:57:36;;;;;;;57.50;25.55;;;9.70;99.90;;;;;;4988599;28;20491;-89
2022/04/29 03:00:03;;;;;;;58.70;23.55;;;9.60;99.90;;;;;;4989345;28;20355;-90
2022/04/29 03:02:29;;;;;;;52.53;24.17;;;9.70;99.90;;;;;;4989833;28;20105;-91
2022/04/29 03:04:55;;;;;;;60.50;24.65;;;9.50;99.90;;;;;;4988318;28;20046;-90
2022/04/29 03:07:20;;;;;;;54.75;25.00;;;9.40;99.90;;;;;;4990300;28;20442;-90
2022/04/29 03:09:48;;;;;;;51.33;25.30;;;;;;;;;;5004821;28;20026;-90
2022/04/29 03:12:14;;;;;;;54.72;23.98;;;;;;;;;;4989419;28;20493;-91
2022/04/29 03:14:41;;;;;;;51.15;23.63;;;9.20;99.90;;;;;;4988582;28;20022;-90
2022/04/29 03:18:18;;;;;;;57.72;24.23;;;9.30;99.90;;;;;;4988323;28;20026;-90
2022/04/29 03:19:53;;;;;;;48.85;24.38;;;9.20;99.90;;;;;;4990450;28;20019;-91
2022/04/29 03:22:18;;;;;;;55.17;24.33;;;9.20;99.90;;;;;;4988390;28;20080;-91
2022/04/29 03:24:44;;;;;;;48.95;24.75;;;9.10;99.90;;;;;;4989795;28;20030;-92
2022/04/29 03:27:10;;;;;;;59.67;25.15;;;9.10;99.90;;;;;;4989388;28;20048;-90
2022/04/29 03:29:37;;;;;;;56.30;23.85;;;9.10;99.90;;;;;;4988514;28;20018;-91
2022/04/29 03:32:03;;;;;;;54.30;24.42;;;9.00;99.90;;;;;;4989153;28;20438;-89
2022/04/29 03:34:28;;;;;;;55.85;24.48;;;9.00;99.90;;;;;;4988748;28;20506;-91
2022/04/29 03:36:54;;;;;;;52.33;25.20;;;8.90;99.90;;;;;;4989832;28;20066;-88
2022/04/29 03:39:20;;;;;;;57.83;26.45;;;8.90;99.90;;;;;;4990532;28;20019;-89
2022/04/29 03:41:46;;;;;;;62.95;26.70;;;8.90;99.90;;;;;;4989782;28;20085;-91
2022/04/29 03:44:11;;;;;;;48.22;24.30;;;8.80;99.90;;;;;;4987647;28;20042;-89
2022/04/29 03:46:37;;;;;;;55.95;24.75;;;8.80;99.90;;;;;;4988726;28;20459;-91
2022/04/29 03:51:47;;;;;;;52.42;24.40;;;8.80;99.90;;;;;;4989643;28;20053;-89
2022/04/29 03:54:12;;;;;;;54.25;26.25;;;8.80;99.90;;;;;;4989635;28;20556;-90
2022/04/29 03:56:38;;;;;;;54.30;25.83;;;8.70;99.90;;;;;;4988591;28;20027;-90
2022/04/29 03:59:04;;;;;;;56.85;25.15;;;8.70;99.90;;;;;;4989435;28;20538;-89
2022/04/29 04:01:31;;;;;;;56.22;25.55;;;8.80;99.90;;;;;;4989933;28;20018;-90
2022/04/29 04:03:57;;;;;;;46.42;23.90;;;8.70;99.90;;;;;;4988433;28;20034;-91
2022/04/29 04:09:07;;;;;;;55.03;23.85;;;8.70;99.90;;;;;;4989120;28;20041;-87
2022/04/29 04:11:33;;;;;;;52.55;24.00;;;8.70;99.90;;;;;;4987500;28;20019;-89
2022/04/29 04:13:59;;;;;;;55.92;26.02;;;8.70;99.90;;;;;;4990892;28;20104;-86
2022/04/29 04:16:25;;;;;;;52.78;24.85;;;8.70;99.90;;;;;;4992769;28;20490;-88
2022/04/29 04:18:51;;;;;;;49.47;24.38;;;8.70;99.90;;;;;;4993195;28;20493;-87
2022/04/29 04:21:16;;;;;;;55.42;25.02;;;8.60;99.90;;;;;;4992201;28;20061;-89
2022/04/29 04:23:42;;;;;;;46.17;24.40;;;8.60;99.90;;;;;;4992217;28;20513;-87
2022/04/29 04:26:08;;;;;;;54.75;23.42;;;8.50;99.90;;;;;;4992070;28;20153;-88
2022/04/29 04:28:34;;;;;;;55.15;24.02;;;8.50;99.90;;;;;;4991682;28;20037;-87
2022/04/29 04:30:59;;;;;;;58.13;25.65;;;8.50;99.90;;;;;;4991985;28;20030;-86
2022/04/29 04:33:25;;;;;;;44.72;23.00;;;8.40;99.90;;;;;;4992360;28;20022;-86
2022/04/29 04:35:51;;;;;;;56.83;25.30;;;8.40;99.90;;;;;;4991962;28;20037;-86
2022/04/29 04:38:17;;;;;;;55.75;25.45;;;8.40;99.90;;;;;;4991185;28;20034;-86
2022/04/29 04:40:43;;;;;;;57.20;25.13;;;8.40;99.90;;;;;;4984934;28;20036;-86
2022/04/29 04:43:08;;;;;;;58.00;26.35;;;8.40;99.90;;;;;;4987651;28;20498;-86
2022/04/29 04:45:34;;;;;;;56.47;25.05;;;8.40;99.90;;;;;;4990104;28;20222;-86
2022/04/29 04:48:00;;;;;;;57.53;25.45;;;8.40;99.90;;;;;;4990140;28;20031;-86
2022/04/29 04:50:26;;;;;;;51.33;24.90;;;8.40;99.90;;;;;;4992888;28;20493;-86
2022/04/29 04:52:51;;;;;;;60.25;25.77;;;8.40;99.90;;;;;;5000246;28;20501;-86
2022/04/29 04:55:17;;;;;;;52.88;24.50;;;8.40;99.90;;;;;;5000033;28;20023;-86
2022/04/29 04:57:43;;;;;;;47.20;24.83;;;8.30;99.90;;;;;;4998538;28;20064;-87
2022/04/29 05:00:09;;;;;;;60.75;26.15;;;8.30;99.90;;;;;;4994493;28;20057;-85
2022/04/29 05:02:39;;;;;;;69.30;28.17;;;8.30;99.90;;;;;;4995146;28;20011;-87
2022/04/29 05:05:05;;;;;;;55.92;25.50;;;8.30;99.90;;;;;;4989337;28;20038;-88
2022/04/29 05:07:30;;;;;;;62.70;25.95;;;8.30;99.90;;;;;;4989700;28;20034;-85
2022/04/29 05:09:56;;;;;;;60.90;25.95;;;8.30;99.90;;;;;;4990142;28;20120;-85
2022/04/29 05:12:22;;;;;;;65.05;27.42;;;8.30;99.90;;;;;;4990999;28;20487;-89
2022/04/29 05:14:47;;;;;;;53.22;25.48;;;8.30;99.90;;;;;;4991061;28;20061;-90
2022/04/29 05:17:13;;;;;;;55.75;25.92;;;8.30;99.90;;;;;;4988750;28;20030;-89
2022/04/29 05:19:39;;;;;;;52.40;25.50;;;8.30;99.90;;;;;;4980738;28;20034;-88
2022/04/29 05:22:04;;;;;;;57.40;24.73;;;8.30;99.90;;;;;;4971823;28;20034;-89
2022/04/29 05:24:30;;;;;;;62.28;26.42;;;8.40;99.90;;;;;;4971615;28;20031;-86
2022/04/29 05:26:56;;;;;;;62.13;25.63;;;8.40;99.90;;;;;;4987891;28;20042;-86
2022/04/29 05:29:22;;;;;;;53.50;24.35;;;8.40;99.90;;;;;;5005978;28;20022;-87
2022/04/29 05:31:48;;;;;;;59.90;26.95;;;8.40;99.90;;;;;;4990656;28;20026;-88
2022/04/29 05:34:15;;;;;;;56.28;25.60;;;8.40;99.90;;;;;;4991185;28;20034;-88
2022/04/29 05:36:40;;;;;;;61.70;25.52;;;8.40;99.90;;;;;;4990143;28;20033;-89
2022/04/29 05:44:35;;;;;;;57.85;25.60;;;8.50;99.90;;;;;;4990915;28;20041;-88
2022/04/29 05:47:01;;;;;;;64.35;27.77;;;8.50;99.90;;;;;;4984782;28;20038;-87
2022/04/29 05:49:26;;;;;;;65.97;27.15;;;8.60;99.90;;;;;;4970874;28;20038;-90
2022/04/29 05:51:52;;;;;;;64.13;26.27;;;8.60;99.90;;;;;;4986598;28;20027;-88
2022/04/29 05:54:18;;;;;;;55.55;25.75;;;8.60;99.90;;;;;;4982728;28;20034;-88
2022/04/29 05:56:44;;;;;;;58.22;26.42;;;8.70;99.90;;;;;;4991578;28;20034;-89
2022/04/29 05:59:10;;;;;;;54.58;26.00;;;8.80;99.90;;;;;;5007183;28;20026;-89
2022/04/29 06:01:35;;;;;;;57.90;26.40;;;8.80;99.90;;;;;;4990863;28;20107;-89
2022/04/29 06:04:01;;;;;;;59.10;25.45;;;8.80;99.90;;;;;;4990159;28;20069;-88
2022/04/29 06:06:26;;;;;;;59.55;24.50;;;8.80;99.90;;;;;;4978914;28;20030;-86
2022/04/29 06:08:52;;;;;;;52.58;25.42;;;8.80;99.90;;;;;;4976727;28;20052;-87
2022/04/29 06:11:18;;;;;;;59.50;25.73;;;8.80;99.90;;;;;;4983611;28;20030;-88
2022/04/29 06:13:43;;;;;;;58.05;24.50;;;8.90;99.90;;;;;;4985564;28;20034;-87
2022/04/29 06:16:10;;;;;;;59.90;23.40;;;8.80;99.90;;;;;;4970629;28;20035;-88
2022/04/29 06:18:36;;;;;;;54.47;26.08;;;8.90;99.90;;;;;;4971143;28;20428;-88
2022/04/29 06:21:02;;;;;;;49.85;26.40;;;8.90;99.90;;;;;;4989380;28;20022;-88
2022/04/29 06:23:28;;;;;;;53.67;24.98;;;9.00;99.90;;;;;;4990733;28;20129;-89
2022/04/29 06:25:54;;;;;;;68.07;26.30;;;9.20;99.90;;;;;;4989927;28;20026;-87
2022/04/29 06:28:19;;;;;;;55.20;25.20;;;9.30;99.90;;;;;;4988868;28;20030;-87
2022/04/29 06:30:45;;;;;;;57.67;25.48;;;9.40;99.90;;;;;;4988536;28;20468;-87
2022/04/29 06:33:10;;;;;;;50.05;24.73;;;9.50;99.90;;;;;;4988535;28;20093;-87
2022/04/29 06:35:43;;;;;;;51.58;26.48;;;9.60;99.90;;;;;;4989169;28;20494;-87
2022/04/29 06:38:10;;;;;;;64.10;24.98;;;9.80;99.90;;;;;;4989390;28;20077;-86
2022/04/29 06:40:36;;;;;;;59.13;24.73;;;9.90;99.90;;;;;;4989985;28;20026;-87
2022/04/29 06:43:02;;;;;;;45.22;23.25;;;10.00;99.90;;;;;;4989988;28;20038;-84
2022/04/29 06:45:28;;;;;;;54.33;25.65;;;9.80;99.90;;;;;;4990402;28;20026;-88
2022/04/29 06:47:54;;;;;;;49.92;24.35;;;9.80;99.90;;;;;;4989587;28;20038;-85
2022/04/29 06:50:19;;;;;;;49.97;23.52;;;9.80;99.90;;;;;;4989865;28;20030;-87
2022/04/29 06:52:45;;;;;;;54.50;24.25;;;9.70;99.90;;;;;;4989650;28;20072;-85
2022/04/29 06:55:11;;;;;;;49.17;24.67;;;9.70;99.90;;;;;;4988352;28;20395;-87
2022/04/29 06:57:37;;;;;;;53.75;23.90;;;9.70;99.90;;;;;;4988299;28;20026;-87
2022/04/29 07:00:04;;;;;;;52.20;23.45;;;9.70;99.90;;;;;;4988790;28;20471;-86
2022/04/29 07:02:31;;;;;;;50.45;22.92;;;9.90;99.90;;;;;;4990053;28;20026;-87
2022/04/29 07:04:57;;;;;;;49.97;24.70;;;10.00;99.90;;;;;;4989572;28;20030;-88
2022/04/29 07:07:24;;;;;;;54.35;24.70;;;10.20;99.90;;;;;;4989526;28;20426;-87
2022/04/29 07:09:50;;;;;;;47.00;23.23;;;10.20;99.90;;;;;;4988158;28;20113;-88
2022/04/29 07:12:16;;;;;;;46.63;24.50;;;10.30;99.90;;;;;;4988159;28;20177;-87
2022/04/29 07:14:42;;;;;;;51.78;26.02;;;10.40;99.90;;;;;;4988168;28;20050;-86
2022/04/29 07:17:08;;;;;;;46.33;25.13;;;10.50;99.90;;;;;;4989243;28;20553;-86
2022/04/29 07:19:37;;;;;;;50.25;23.38;;;10.60;99.90;;;;;;4987995;28;20035;-85
2022/04/29 07:22:03;;;;;;;45.97;24.58;;;10.80;99.90;;;;;;4990277;28;20030;-86
2022/04/29 07:24:29;;;;;;;51.45;24.88;;;10.90;99.90;;;;;;4988800;28;20479;-85
2022/04/29 07:26:55;;;;;;;44.33;23.05;;;11.00;99.90;;;;;;4989273;28;20077;-87
2022/04/29 07:29:20;;;;;;;49.40;23.90;;;11.00;99.90;;;;;;4989361;28;20073;-86
2022/04/29 07:31:46;;;;;;;49.83;23.50;;;11.00;99.90;;;;;;4987947;28;20448;-88
2022/04/29 07:34:11;;;;;;;52.55;24.65;;;11.00;99.90;;;;;;4988020;28;20562;-87
2022/04/29 07:42:05;;;;;;;44.60;23.63;;;11.50;99.90;;;;;;4989250;28;20077;-86
2022/04/29 07:44:31;;;;;;;49.20;23.90;;;11.80;99.90;;;;;;4988482;28;20054;-86
2022/04/29 07:46:57;;;;;;;46.65;24.15;;;11.90;99.90;;;;;;4990833;28;20466;-87
2022/04/29 07:49:23;;;;;;;47.05;23.80;;;12.10;99.90;;;;;;4991143;28;20487;-89
2022/04/29 07:51:49;;;;;;;43.65;23.30;;;12.30;99.90;;;;;;4992614;28;20106;-87
2022/04/29 07:54:15;;;;;;;40.95;23.92;;;12.20;99.90;;;;;;4983365;28;20026;-87
2022/04/29 07:56:41;;;;;;;43.33;23.98;;;12.20;99.90;;;;;;4972605;28;20102;-87
2022/04/29 07:59:06;;;;;;;48.53;25.40;;;12.40;99.90;;;;;;4973183;28;20126;-85
2022/04/29 08:01:38;;;;;;;41.20;22.73;;;12.40;99.90;;;;;;4982008;28;20028;-90
2022/04/29 08:04:04;;;;;;;45.30;23.42;;;12.50;99.90;;;;;;4993410;28;20022;-85
2022/04/29 08:06:30;;;;;;;41.92;23.02;;;12.60;99.90;;;;;;4992821;28;20501;-88
2022/04/29 08:08:56;;;;;;;47.85;23.88;;;12.80;99.90;;;;;;4973697;28;20272;-86
2022/04/29 08:11:22;;;;;;;38.00;23.55;;;12.90;99.90;;;;;;4972755;28;20031;-87
2022/04/29 08:13:48;;;;;;;47.90;23.10;;;13.20;99.90;;;;;;4973424;28;20046;-85
2022/04/29 08:16:15;;;;;;;42.00;22.98;;;13.30;99.90;;;;;;4973127;28;20058;-87
2022/04/29 08:18:42;;;;;;;41.20;22.90;;;13.40;99.90;;;;;;4971904;28;20408;-88
2022/04/29 08:21:08;;;;;;;44.40;22.58;;;13.50;99.90;;;;;;4992039;28;20065;-84
2022/04/29 08:23:34;;;;;;;40.45;24.27;;;13.40;99.90;;;;;;4993076;28;20559;-88
2022/04/29 08:26:00;;;;;;;42.92;23.90;;;13.40;99.90;;;;;;4992327;28;20486;-88
2022/04/29 08:28:28;;;;;;;44.42;24.13;;;13.40;99.90;;;;;;4990805;28;20062;-87
2022/04/29 08:30:53;;;;;;;44.63;23.77;;;13.50;99.90;;;;;;4990356;28;20034;-88
2022/04/29 08:33:21;;;;;;;44.17;24.05;;;13.40;99.90;;;;;;4990769;28;20025;-87
2022/04/29 08:35:47;;;;;;;44.87;23.97;;;13.30;99.90;;;;;;4992069;28;20019;-87
2022/04/29 08:38:13;;;;;;;40.80;23.17;;;13.40;99.90;;;;;;4991845;28;20394;-88
2022/04/29 08:40:43;;;;;;;37.17;22.15;;;13.10;99.90;;;;;;4990487;28;20026;-85
2022/04/29 08:43:14;;;;;;;46.22;24.77;;;13.20;99.90;;;;;;4992047;28;20035;-85
2022/04/29 08:45:40;;;;;;;44.92;24.77;;;13.40;99.90;;;;;;4991830;28;20113;-87
2022/04/29 08:48:07;;;;;;;40.35;23.35;;;13.60;99.90;;;;;;4992707;28;20034;-87
2022/04/29 08:50:33;;;;;;;40.78;24.65;;;13.70;99.90;;;;;;4990631;28;20550;-88
2022/04/29 08:52:59;;;;;;;41.38;23.58;;;13.70;99.90;;;;;;4990661;28;20291;-89
2022/04/29 09:01:01;;;;;;;41.92;24.83;;;13.90;99.90;;;;;;4991826;28;20040;-90
2022/04/29 09:03:27;;;;;;;37.47;24.20;;;14.00;99.90;;;;;;4990278;28;20501;-85
2022/04/29 09:05:52;;;;;;;43.40;25.58;;;13.90;99.90;;;;;;4988372;28;20545;-87
2022/04/29 09:08:20;;;;;;;46.30;24.73;;;13.80;99.90;;;;;;4983159;28;20065;-86
2022/04/29 09:10:50;;;;;;;43.40;25.95;;;13.90;99.90;;;;;;4989503;28;20388;-87
2022/04/29 09:13:18;;;;;;;39.80;24.20;;;14.40;99.90;;;;;;4990497;28;20031;-86
2022/04/29 09:15:51;;;;;;;38.72;23.90;;;14.40;99.90;;;;;;4988739;28;20026;-86
2022/04/29 09:18:42;;;;;;;39.90;24.10;;;14.70;99.90;;;;;;5002180;28;20391;-86
2022/04/29 09:21:15;;;;;;;41.65;24.73;;;15.10;99.90;;;;;;4989581;28;20026;-85
2022/04/29 09:23:47;;;;;;;41.47;24.52;;;15.20;99.90;;;;;;4990128;28;20030;-87
2022/04/29 09:26:28;;;;;;;44.13;24.75;;;15.00;99.90;;;;;;4990037;28;20407;-85
2022/04/29 09:29:09;;;;;;;41.55;24.85;;;14.90;99.90;;;;;;4988764;28;20038;-87
2022/04/29 09:31:54;;;;;;;38.42;24.42;;;15.10;99.90;;;;;;4990089;28;20030;-87
2022/04/29 09:34:20;;;;;;;38.47;24.55;;;15.20;99.90;;;;;;4971590;28;20479;-85
2022/04/29 09:36:46;;;;;;;43.65;26.38;;;15.40;99.90;;;;;;4969615;28;20497;-85
2022/04/29 09:39:28;;;;;;;41.90;24.63;;;;;;;;;;4974313;28;20030;-87
2022/04/29 09:41:54;;;;;;;43.60;25.58;;;;;;;;;;4985401;28;20034;-85
2022/04/29 09:44:27;;;;;;;42.90;25.58;;;;;;;;;;4978112;28;20093;-86
2022/04/29 09:46:53;;;;;;;45.55;26.52;;;;;;;;;;4969268;28;20038;-86
2022/04/29 09:49:20;;;;;;;43.72;26.20;;;;;;;;;;4984944;28;20490;-86
2022/04/29 09:51:46;;;;;;;43.10;23.77;;;;;;;;;;4989756;28;20034;-85
2022/04/29 09:54:12;;;;;;;46.13;24.20;;;;;;;;;;4989697;28;20033;-87
2022/04/29 09:56:38;;;;;;;41.88;24.60;;;;;;;;;;4990692;28;20049;-85
2022/04/29 09:59:04;;;;;;;39.80;23.88;;;;;;;;;;4989608;28;20371;-85
2022/04/29 10:01:30;;;;;;;52.13;25.08;;;;;;;;;;4988647;28;20689;-84
2022/04/29 10:03:57;;;;;;;42.28;26.10;;;;;;;;;;4989782;28;20038;-87
2022/04/29 10:06:23;;;;;;;36.65;23.55;;;;;;;;;;4986192;28;20385;-84
2022/04/29 10:08:50;;;;;;;41.35;23.70;;;;;;;;;;4989184;28;20058;-85
2022/04/29 10:11:18;;;;;;;41.47;24.42;;;;;;;;;;4989288;28;20033;-85
2022/04/29 10:13:45;;;;;;;40.45;24.58;;;;;;;;;;4988142;28;20040;-84
2022/04/29 10:16:16;;;;;;;36.92;23.25;;;;;;;;;;4989652;28;20030;-83
2022/04/29 10:21:37;;;;;;;41.05;25.00;;;;;;;;;;4989027;28;20065;-83
2022/04/29 10:24:03;;;;;;;38.92;23.88;;;;;;;;;;4989163;28;20018;-85
2022/04/29 10:26:30;;;;;;;37.92;22.40;;;;;;;;;;4989116;28;20037;-84
2022/04/29 10:28:56;;;;;;;41.67;21.83;;;;;;;;;;4969481;28;20487;-84
2022/04/29 10:31:23;;;;;;;37.13;23.05;;;;;;;;;;4969977;28;20052;-85
2022/04/29 10:33:50;;;;;;;36.17;23.20;;;;;;;;;;4968318;28;20038;-84
2022/04/29 10:36:16;;;;;;;38.60;23.45;;;;;;;;;;4969795;28;20030;-84
2022/04/29 10:38:46;;;;;;;42.53;23.35;;;;;;;;;;4968802;28;20098;-85
2022/04/29 10:41:12;;;;;;;44.33;24.13;;;;;;;;;;4987189;28;20030;-85
2022/04/29 10:43:48;;;;;;;41.63;24.08;;;;;;;;;;4982724;28;20108;-85
2022/04/29 10:46:20;;;;;;;45.03;25.70;;;;;;;;;;4968440;28;20031;-84
2022/04/29 10:48:46;;;;;;;47.45;25.90;;;;;;;;;;4983707;28;20026;-85
2022/04/29 10:51:17;;;;;;;37.88;25.27;;;;;;;;;;4989112;28;20034;-86
2022/04/29 10:53:44;;;;;;;40.88;24.90;;;;;;;;;;4988448;28;20104;-88
2022/04/29 10:56:32;;;;;;;36.67;23.67;;;;;;;;;;4987804;28;20033;-85
2022/04/29 10:59:10;;;;;;;44.25;25.00;;;;;;;;;;4988708;28;20034;-86
2022/04/29 11:01:37;;;;;;;38.58;24.42;;;;;;;;;;4970329;28;20560;-86
2022/04/29 11:04:06;;;;;;;42.03;24.13;;;;;;;;;;4969000;28;20035;-87
2022/04/29 11:06:36;;;;;;;39.25;24.17;;;;;;;;;;4973465;28;20514;-87
2022/04/29 11:09:03;;;;;;;45.58;23.40;;;;;;;;;;4969305;28;20042;-85
2022/04/29 11:11:44;;;;;;;33.20;22.35;;;;;;;;;;4979060;28;20026;-87
2022/04/29 11:14:12;;;;;;;36.33;23.42;;;;;;;;;;4989140;28;20030;-85
2022/04/29 11:16:58;;;;;;;36.58;23.17;;;;;;;;;;4982171;28;20027;-86
2022/04/29 11:19:27;;;;;;;38.38;23.13;;;;;;;;;;4983594;28;20109;-85
2022/04/29 11:24:49;;;;;;;37.65;23.80;;;;;;;;;;4992535;28;20077;-83
2022/04/29 11:27:24;;;;;;;35.70;22.58;;;;;;;;;;5008448;28;20125;-83
2022/04/29 11:29:50;;;;;;;39.33;22.95;;;;;;;;;;5010737;28;20033;-84
2022/04/29 11:32:22;;;;;;;39.80;23.63;;;;;;;;;;5012240;28;20033;-85
2022/04/29 11:34:52;;;;;;;37.72;22.58;;;;;;;;;;5011881;28;20021;-83
2022/04/29 11:37:24;;;;;;;40.80;22.67;;;;;;;;;;4995101;28;20513;-84
2022/04/29 11:39:52;;;;;;;32.53;23.10;;;;;;;;;;4992262;28;20545;-84
2022/04/29 11:42:19;;;;;;;39.25;23.45;;;;;;;;;;4992384;28;20043;-84
2022/04/29 11:44:51;;;;;;;38.08;21.40;;;;;;;;;;4992182;28;20029;-84
2022/04/29 11:47:18;;;;;;;35.53;22.65;;;;;;;;;;4992423;28;20042;-84
2022/04/29 11:49:44;;;;;;;34.05;22.90;;;;;;;;;;4992165;28;20022;-86
2022/04/29 11:52:19;;;;;;;34.72;22.05;;;;;;;;;;4992495;28;20030;-85
2022/04/29 11:55:04;;;;;;;36.25;21.50;;;;;;;;;;4992314;28;20030;-89
2022/04/29 11:57:31;;;;;;;38.30;21.38;;;;;;;;;;4992268;28;20281;-85
2022/04/29 11:59:57;;;;;;;37.60;22.45;;;;;;;;;;4990797;28;20101;-85
2022/04/29 12:02:24;;;;;;;35.38;20.70;;;;;;;;;;4992220;28;20030;-85
2022/04/29 12:04:57;;;;;;;30.08;19.98;;;;;;;;;;4991935;28;20026;-84
2022/04/29 12:07:24;;;;;;;33.35;19.95;;;;;;;;;;4991961;28;20034;-86
2022/04/29 12:09:50;;;;;;;26.77;19.00;;;;;;;;;;4991679;28;20030;-86
2022/04/29 12:12:27;;;;;;;36.78;20.35;;;;;;;;;;4991822;28;20030;-84
2022/04/29 12:14:53;;;;;;;33.70;20.33;;;;;;;;;;4991435;28;20029;-87
2022/04/29 12:17:20;;;;;;;29.95;19.15;;;;;;;;;;4991679;28;20033;-86
2022/04/29 12:19:55;;;;;;;35.58;19.77;;;;;;;;;;4990549;28;20023;-85
2022/04/29 12:22:28;;;;;;;32.03;18.85;;;;;;;;;;4992280;28;20430;-86
2022/04/29 12:24:54;;;;;;;36.05;19.13;;;;;;;;;;4991520;28;20030;-84
2022/04/29 12:27:28;;;;;;;31.23;17.80;;;;;;;;;;4991636;28;20057;-85
2022/04/29 12:35:27;;;;;;;29.20;16.45;;;;;;;;;;4991598;28;20046;-88
2022/04/29 12:37:56;;;;;;;24.90;15.95;;;;;;;;;;4991128;28;20018;-87
2022/04/29 12:40:29;;;;;;;24.88;16.50;;;;;;;;;;4990184;28;20558;-87
2022/04/29 12:43:11;;;;;;;30.02;16.38;;;;;;;;;;4991067;28;20034;-88
2022/04/29 12:45:37;;;;;;;27.50;16.88;;;;;;;;;;4992077;28;20056;-88
2022/04/29 12:48:04;;;;;;;39.47;16.75;;;;;;;;;;4990851;28;20176;-85
2022/04/29 12:50:37;;;;;;;26.50;17.45;;;;;;;;;;4991254;28;20082;-85
2022/04/29 12:53:08;;;;;;;32.03;17.80;;;;;;;;;;4991005;28;20030;-88
2022/04/29 12:55:46;;;;;;;29.17;16.05;;;;;;;;;;4991231;28;20471;-85
2022/04/29 12:58:12;;;;;;;;;;;;;;;;;;4989984;28;20402;-87
2022/04/29 13:00:40;;;;;;;27.30;16.23;;;;;;;;;;5006634;28;19894;-85
2022/04/29 13:03:08;;;;;;;25.02;15.95;;;;;;;;;;5015325;28;20014;-86
2022/04/29 13:05:34;;;;;;;25.90;16.85;;;;;;;;;;5015554;28;20034;-87
2022/04/29 13:08:01;;;;;;;25.38;15.05;;;;;;;;;;4996334;28;20045;-86
2022/04/29 13:10:27;;;;;;;38.85;17.42;;;;;;;;;;4994784;28;20030;-87
2022/04/29 13:12:57;;;;;;;24.30;15.70;;;;;;;;;;4991012;28;20109;-87
2022/04/29 13:15:23;;;;;;;26.85;15.73;;;;;;;;;;4991059;28;20022;-87
2022/04/29 13:17:49;;;;;;;28.77;14.85;;;;;;;;;;4989266;28;20019;-88
2022/04/29 13:20:16;;;;;;;23.63;13.50;;;;;;;;;;4990415;28;20038;-86
2022/04/29 13:22:42;;;;;;;24.05;14.27;;;;;;;;;;4989223;28;20026;-89
2022/04/29 13:25:09;;;;;;;44.20;16.45;;;;;;;;;;4990110;28;20042;-86
2022/04/29 13:27:35;;;;;;;32.63;15.95;;;;;;;;;;4989778;28;20049;-87
2022/04/29 13:30:02;;;;;;;21.67;14.25;;;;;;;;;;4980616;28;20086;-86
2022/04/29 13:32:28;;;;;;;21.83;13.50;;;;;;;;;;4989202;28;20061;-86
2022/04/29 13:34:54;;;;;;;23.13;14.25;;;;;;;;;;4990613;28;20058;-86